createdAt,value
2023-11-24T00:00:59.079Z,6.40
2023-11-24T00:03:43.221Z,6.40
2023-11-24T00:06:12.840Z,6.40
2023-11-24T00:08:41.860Z,6.30
2023-11-24T00:11:10.059Z,6.30
2023-11-24T00:13:38.609Z,6.20
2023-11-24T00:16:08.643Z,6.20
2023-11-24T00:18:38.823Z,6.20
2023-11-24T00:21:10.455Z,6.20
2023-11-24T00:23:39.203Z,6.20
2023-11-24T00:26:07.715Z,6.20
2023-11-24T00:28:37.999Z,6.20
2023-11-24T00:31:07.039Z,6.10
2023-11-24T00:33:36.864Z,6.10
2023-11-24T00:36:07.337Z,6.10
2023-11-24T00:38:37.385Z,6.00
2023-11-24T00:41:05.915Z,6.00
2023-11-24T00:43:37.460Z,5.90
2023-11-24T00:46:07.107Z,5.90
2023-11-24T00:48:36.078Z,5.80
2023-11-24T00:51:04.396Z,5.80
2023-11-24T00:53:32.953Z,5.70
2023-11-24T00:56:03.028Z,5.70
2023-11-24T00:58:31.561Z,5.60
2023-11-24T01:01:01.794Z,5.60
2023-11-24T01:03:30.445Z,5.60
2023-11-24T01:05:58.742Z,5.50
2023-11-24T01:08:27.431Z,5.50
2023-11-24T01:10:57.740Z,5.60
2023-11-24T01:13:27.899Z,5.60
2023-11-24T01:15:56.087Z,5.70
2023-11-24T01:18:26.675Z,5.70
2023-11-24T01:20:54.989Z,5.80
2023-11-24T01:23:23.535Z,5.70
2023-11-24T01:25:52.242Z,5.70
2023-11-24T01:28:20.798Z,5.70
2023-11-24T01:30:51.411Z,5.70
2023-11-24T01:33:20.875Z,5.60
2023-11-24T01:35:50.387Z,5.60
2023-11-24T01:38:19.652Z,5.50
2023-11-24T01:40:48.027Z,5.50
2023-11-24T01:43:17.169Z,5.50
2023-11-24T01:45:47.272Z,5.50
2023-11-24T01:48:20.929Z,5.50
2023-11-24T01:50:49.756Z,5.50
2023-11-24T01:53:19.269Z,5.50
2023-11-24T01:55:49.430Z,5.50
2023-11-24T01:58:18.798Z,5.40
2023-11-24T02:00:47.868Z,5.40
2023-11-24T02:03:17.911Z,5.30
2023-11-24T02:05:47.874Z,5.30
2023-11-24T02:08:16.480Z,5.20
2023-11-24T02:10:44.851Z,5.20
2023-11-24T02:13:13.423Z,5.00
2023-11-24T02:15:41.753Z,5.10
2023-11-24T02:18:10.378Z,5.00
2023-11-24T02:20:40.192Z,4.90
2023-11-24T02:23:10.298Z,4.90
2023-11-24T02:25:38.525Z,4.90
2023-11-24T02:28:07.481Z,4.90
2023-11-24T02:30:35.715Z,4.80
2023-11-24T02:33:05.098Z,4.80
2023-11-24T02:35:33.464Z,4.80
2023-11-24T02:38:03.536Z,4.70
2023-11-24T02:40:33.965Z,4.70
2023-11-24T02:43:02.823Z,4.70
2023-11-24T02:45:31.191Z,4.70
2023-11-24T02:47:59.842Z,4.70
2023-11-24T02:50:28.159Z,4.70
2023-11-24T02:52:56.805Z,4.60
2023-11-24T02:55:25.044Z,4.60
2023-11-24T02:57:54.953Z,4.60
2023-11-24T03:00:23.251Z,4.60
2023-11-24T03:02:52.230Z,4.50
2023-11-24T03:05:20.724Z,4.50
2023-11-24T03:07:49.222Z,4.50
2023-11-24T03:10:18.032Z,4.50
2023-11-24T03:12:46.562Z,4.50
2023-11-24T03:15:17.294Z,4.50
2023-11-24T03:17:46.182Z,4.50
2023-11-24T03:20:15.415Z,4.50
2023-11-24T03:22:44.550Z,4.50
2023-11-24T03:25:13.563Z,4.50
2023-11-24T03:27:42.682Z,4.40
2023-11-24T03:30:11.805Z,4.50
2023-11-24T03:32:44.068Z,4.40
2023-11-24T03:35:12.490Z,4.40
2023-11-24T03:37:40.972Z,4.40
2023-11-24T03:40:10.539Z,4.40
2023-11-24T03:42:39.532Z,4.40
2023-11-24T03:45:08.783Z,4.40
2023-11-24T03:47:39.913Z,4.40
2023-11-24T03:50:11.640Z,4.40
2023-11-24T03:52:40.171Z,4.40
2023-11-24T03:55:10.264Z,4.30
2023-11-24T03:57:38.827Z,4.30
2023-11-24T04:00:08.884Z,4.30
2023-11-24T04:02:37.414Z,4.20
2023-11-24T04:05:06.734Z,4.20
2023-11-24T04:07:36.621Z,4.20
2023-11-24T04:10:05.160Z,4.10
2023-11-24T04:12:33.735Z,4.10
2023-11-24T04:15:02.110Z,4.20
2023-11-24T04:17:30.721Z,4.10
2023-11-24T04:19:59.141Z,4.20
2023-11-24T04:22:27.708Z,4.20
2023-11-24T04:24:57.348Z,4.30
2023-11-24T04:27:25.850Z,4.30
2023-11-24T04:29:54.116Z,4.40
2023-11-24T04:32:23.220Z,4.50
2023-11-24T04:34:51.536Z,4.50
2023-11-24T04:37:21.021Z,4.50
2023-11-24T04:39:49.392Z,4.70
2023-11-24T04:42:19.566Z,4.70
2023-11-24T04:44:47.818Z,4.70
2023-11-24T04:47:17.809Z,4.80
2023-11-24T04:49:46.472Z,4.80
2023-11-24T04:52:15.260Z,4.80
2023-11-24T04:54:43.690Z,4.80
2023-11-24T04:57:12.539Z,4.80
2023-11-24T04:59:43.395Z,4.80
2023-11-24T05:02:13.492Z,4.80
2023-11-24T05:04:41.884Z,4.80
2023-11-24T05:07:11.119Z,4.80
2023-11-24T05:09:39.768Z,4.80
2023-11-24T05:12:08.897Z,4.80
2023-11-24T05:14:37.160Z,4.80
2023-11-24T05:17:07.451Z,4.90
2023-11-24T05:19:35.802Z,4.80
2023-11-24T05:22:04.478Z,4.80
2023-11-24T05:24:32.859Z,4.90
2023-11-24T05:27:01.512Z,4.90
2023-11-24T05:29:30.611Z,4.90
2023-11-24T05:31:58.281Z,4.90
2023-11-24T05:34:27.967Z,4.90
2023-11-24T05:36:56.841Z,4.90
2023-11-24T05:39:25.105Z,4.90
2023-11-24T05:41:53.580Z,4.90
2023-11-24T05:44:22.950Z,4.90
2023-11-24T05:46:51.615Z,4.90
2023-11-24T05:49:19.938Z,4.90
2023-11-24T05:51:49.888Z,4.90
2023-11-24T05:54:18.159Z,5.00
2023-11-24T05:56:46.898Z,5.00
2023-11-24T05:59:15.132Z,5.00
2023-11-24T06:01:43.929Z,5.00
2023-11-24T06:04:12.459Z,5.00
2023-11-24T06:06:41.002Z,5.00
2023-11-24T06:09:10.986Z,5.00
2023-11-24T06:11:39.512Z,5.00
2023-11-24T06:14:08.759Z,5.00
2023-11-24T06:16:37.470Z,5.00
2023-11-24T06:19:05.853Z,4.90
2023-11-24T06:21:35.081Z,4.90
2023-11-24T06:24:03.600Z,4.90
2023-11-24T06:26:34.380Z,4.90
2023-11-24T06:29:02.807Z,4.80
2023-11-24T06:31:31.794Z,4.90
2023-11-24T06:34:00.515Z,4.80
2023-11-24T06:36:29.371Z,4.80
2023-11-24T06:38:57.731Z,4.90
2023-11-24T06:41:26.301Z,4.90
2023-11-24T06:43:55.978Z,4.90
2023-11-24T06:46:24.630Z,4.90
2023-11-24T06:48:54.296Z,4.90
2023-11-24T06:51:23.162Z,4.90
2023-11-24T06:53:51.968Z,4.90
2023-11-24T06:56:22.615Z,5.00
2023-11-24T06:58:55.591Z,4.90
2023-11-24T07:01:33.776Z,5.00
2023-11-24T07:04:02.852Z,4.80
2023-11-24T07:06:32.093Z,4.80
2023-11-24T07:09:00.459Z,4.70
2023-11-24T07:11:28.996Z,4.60
2023-11-24T07:13:58.011Z,4.60
2023-11-24T07:16:26.944Z,4.50
2023-11-24T07:18:56.730Z,4.50
2023-11-24T07:21:26.679Z,4.40
2023-11-24T07:23:55.056Z,4.30
2023-11-24T07:26:23.686Z,4.30
2023-11-24T07:28:51.956Z,4.20
2023-11-24T07:31:23.491Z,4.20
2023-11-24T07:33:51.770Z,4.20
2023-11-24T07:36:21.737Z,4.30
2023-11-24T07:38:50.225Z,4.20
2023-11-24T07:41:18.802Z,4.30
2023-11-24T07:43:47.319Z,4.40
2023-11-24T07:46:15.954Z,4.40
2023-11-24T07:48:45.029Z,4.50
2023-11-24T07:51:13.703Z,4.60
2023-11-24T07:53:43.757Z,4.60
2023-11-24T07:56:12.436Z,4.60
2023-11-24T07:58:41.134Z,4.60
2023-11-24T08:01:09.811Z,4.60
2023-11-24T08:03:38.294Z,4.60
2023-11-24T08:06:09.044Z,4.60
2023-11-24T08:08:37.570Z,4.60
2023-11-24T08:11:08.017Z,4.60
2023-11-24T08:13:36.448Z,4.60
2023-11-24T08:16:05.429Z,4.60
2023-11-24T08:18:36.942Z,4.70
2023-11-24T08:21:06.042Z,4.70
2023-11-24T08:23:34.261Z,4.70
2023-11-24T08:26:04.647Z,4.70
2023-11-24T08:28:34.445Z,4.70
2023-11-24T08:31:03.523Z,4.80
2023-11-24T08:33:32.526Z,4.70
2023-11-24T08:36:01.241Z,4.80
2023-11-24T08:38:29.684Z,4.80
2023-11-24T08:40:58.469Z,4.90
2023-11-24T08:43:26.686Z,5.00
2023-11-24T08:45:56.700Z,5.00
2023-11-24T08:48:24.934Z,5.10
2023-11-24T08:50:53.516Z,5.10
2023-11-24T08:53:21.782Z,5.20
2023-11-24T08:55:50.318Z,5.20
2023-11-24T08:58:18.785Z,5.20
2023-11-24T09:00:47.919Z,5.20
2023-11-24T09:03:19.088Z,5.10
2023-11-24T09:05:48.076Z,5.10
2023-11-24T09:08:19.963Z,5.00
2023-11-24T09:10:49.806Z,4.90
2023-11-24T09:13:20.448Z,4.90
2023-11-24T09:15:50.822Z,4.80
2023-11-24T09:18:22.760Z,4.80
2023-11-24T09:20:51.549Z,4.80
2023-11-24T09:23:21.480Z,4.80
2023-11-24T09:25:50.212Z,4.80
2023-11-24T09:28:18.725Z,4.80
2023-11-24T09:30:47.395Z,4.90
2023-11-24T09:33:17.980Z,4.90
2023-11-24T09:35:48.703Z,4.90
2023-11-24T09:38:17.172Z,4.90
2023-11-24T09:40:46.128Z,5.00
2023-11-24T09:43:14.895Z,5.00
2023-11-24T09:45:43.883Z,5.00
2023-11-24T09:48:15.977Z,5.00
2023-11-24T09:50:48.612Z,5.00
2023-11-24T09:53:19.950Z,5.00
2023-11-24T09:55:48.882Z,5.10
2023-11-24T09:58:21.299Z,5.20
2023-11-24T10:00:51.766Z,5.20
2023-11-24T10:03:22.182Z,5.30
2023-11-24T10:05:52.592Z,5.40
2023-11-24T10:08:20.885Z,5.40
2023-11-24T10:10:49.433Z,5.40
2023-11-24T10:13:18.716Z,5.40
2023-11-24T10:15:53.525Z,5.30
2023-11-24T10:18:21.874Z,5.20
2023-11-24T10:20:52.788Z,5.10
2023-11-24T10:23:22.981Z,5.10
2023-11-24T10:25:52.805Z,5.00
2023-11-24T10:28:21.511Z,4.90
2023-11-24T10:30:50.145Z,4.90
2023-11-24T10:33:34.912Z,4.80
2023-11-24T10:36:08.303Z,4.80
2023-11-24T10:38:40.423Z,4.70
2023-11-24T10:41:13.801Z,4.70
2023-11-24T10:43:43.011Z,4.70
2023-11-24T10:46:16.299Z,4.70
2023-11-24T10:48:50.510Z,4.60
2023-11-24T10:51:32.775Z,4.60
2023-11-24T10:54:04.211Z,4.50
2023-11-24T10:56:39.819Z,4.50
2023-11-24T10:59:09.811Z,4.40
2023-11-24T11:01:38.609Z,4.40
2023-11-24T11:04:09.215Z,4.40
2023-11-24T11:06:47.006Z,4.40
2023-11-24T11:09:29.916Z,4.40
2023-11-24T11:12:32.265Z,4.40
2023-11-24T11:15:02.489Z,4.50
2023-11-24T11:17:31.048Z,4.60
2023-11-24T11:20:00.789Z,4.70
2023-11-24T11:22:31.331Z,4.80
2023-11-24T11:25:34.057Z,4.90
2023-11-24T11:28:35.570Z,5.00
2023-11-24T11:31:24.822Z,5.10
2023-11-24T11:33:55.086Z,5.20
2023-11-24T11:36:27.920Z,5.20
2023-11-24T11:38:57.909Z,5.20
2023-11-24T11:41:42.200Z,5.20
2023-11-24T11:44:19.204Z,5.20
2023-11-24T11:47:22.556Z,5.20
2023-11-24T11:49:55.406Z,5.20
2023-11-24T11:52:25.981Z,5.20
2023-11-24T11:54:58.402Z,5.20
2023-11-24T11:57:28.749Z,5.20
2023-11-24T11:59:57.883Z,5.30
2023-11-24T12:02:26.478Z,5.20
2023-11-24T12:04:55.357Z,5.20
2023-11-24T12:07:23.903Z,5.10
2023-11-24T12:09:52.601Z,5.10
2023-11-24T12:12:24.239Z,5.10
2023-11-24T12:14:55.913Z,5.00
2023-11-24T12:17:25.189Z,5.00
2023-11-24T12:19:55.077Z,4.90
2023-11-24T12:22:24.737Z,4.80
2023-11-24T12:24:54.494Z,4.80
2023-11-24T12:27:24.426Z,4.80
2023-11-24T12:29:53.314Z,4.70
2023-11-24T12:32:27.870Z,4.80
2023-11-24T12:35:00.927Z,4.70
2023-11-24T12:37:30.123Z,4.80
2023-11-24T12:39:58.754Z,4.70
2023-11-24T12:42:30.766Z,4.70
2023-11-24T12:45:00.318Z,4.70
2023-11-24T12:50:00.855Z,4.70
2023-11-24T12:52:31.334Z,4.70
2023-11-24T12:55:00.238Z,4.70
2023-11-24T12:57:30.163Z,4.70
2023-11-24T13:00:06.835Z,4.60
2023-11-24T13:02:35.322Z,4.60
2023-11-24T13:05:05.296Z,4.60
2023-11-24T13:07:33.769Z,4.60
2023-11-24T13:10:03.704Z,4.70
2023-11-24T13:12:33.483Z,4.70
2023-11-24T13:15:02.010Z,4.80
2023-11-24T13:17:30.287Z,4.80
2023-11-24T13:19:58.929Z,4.80
2023-11-24T13:22:27.415Z,4.90
2023-11-24T13:24:56.034Z,4.90
2023-11-24T13:27:25.638Z,5.00
2023-11-24T13:29:55.564Z,5.00
2023-11-24T13:32:23.810Z,5.10
2023-11-24T13:34:52.665Z,5.10
2023-11-24T13:37:21.345Z,5.10
2023-11-24T13:39:49.991Z,5.10
2023-11-24T13:42:18.783Z,5.10
2023-11-24T13:44:47.717Z,5.10
2023-11-24T13:47:17.655Z,5.10
2023-11-24T13:49:47.690Z,5.20
2023-11-24T13:52:17.655Z,5.20
2023-11-24T13:54:46.333Z,5.30
2023-11-24T13:57:15.176Z,5.30
2023-11-24T13:59:44.166Z,5.30
2023-11-24T14:02:12.630Z,5.30
2023-11-24T14:04:43.218Z,5.40
2023-11-24T14:07:11.859Z,5.30
2023-11-24T14:09:41.681Z,5.30
2023-11-24T14:12:11.044Z,5.20
2023-11-24T14:14:39.654Z,5.20
2023-11-24T14:17:07.970Z,5.20
2023-11-24T14:19:37.393Z,5.10
2023-11-24T14:22:08.708Z,5.00
2023-11-24T14:24:37.837Z,5.00
2023-11-24T14:27:06.162Z,4.90
2023-11-24T14:29:34.693Z,4.80
2023-11-24T14:32:04.075Z,4.80
2023-11-24T14:34:32.870Z,4.80
2023-11-24T14:37:01.242Z,4.70
2023-11-24T14:39:33.864Z,4.60
2023-11-24T14:42:02.295Z,4.50
2023-11-24T14:44:31.162Z,4.50
2023-11-24T14:46:59.485Z,4.40
2023-11-24T14:49:28.941Z,4.30
2023-11-24T14:51:57.739Z,4.30
2023-11-24T14:54:30.805Z,4.30
2023-11-24T14:57:00.764Z,4.30
2023-11-24T14:59:30.666Z,4.30
2023-11-24T15:02:08.213Z,4.40
2023-11-24T15:04:37.128Z,4.30
2023-11-24T15:07:09.001Z,4.30
2023-11-24T15:09:41.430Z,4.30
2023-11-24T15:12:11.905Z,4.30
2023-11-24T15:14:43.138Z,4.30
2023-11-24T15:17:17.158Z,4.30
2023-11-24T15:19:50.067Z,4.30
2023-11-24T15:22:20.610Z,4.30
2023-11-24T15:24:53.922Z,4.40
2023-11-24T15:27:23.845Z,4.30
2023-11-24T15:29:52.913Z,4.30
2023-11-24T15:32:22.337Z,4.30
2023-11-24T15:34:52.850Z,4.20
2023-11-24T15:37:21.280Z,4.10
2023-11-24T15:39:57.633Z,4.00
2023-11-24T15:42:30.396Z,3.90
2023-11-24T15:45:00.310Z,3.90
2023-11-24T15:47:29.963Z,3.80
2023-11-24T15:50:00.414Z,3.70
2023-11-24T15:52:28.755Z,3.60
2023-11-24T15:54:58.804Z,3.50
2023-11-24T15:57:29.194Z,3.40
2023-11-24T16:00:02.597Z,3.40
2023-11-24T16:02:33.763Z,3.30
2023-11-24T16:05:05.816Z,3.30
2023-11-24T16:07:35.668Z,3.20
2023-11-24T16:10:16.657Z,3.20
2023-11-24T16:12:49.728Z,3.20
2023-11-24T16:15:19.039Z,3.10
2023-11-24T16:17:48.645Z,3.10
2023-11-24T16:20:17.289Z,3.10
2023-11-24T16:22:45.560Z,3.10
2023-11-24T16:25:14.606Z,3.10
2023-11-24T16:27:42.994Z,3.10
2023-11-24T16:30:13.334Z,3.10
2023-11-24T16:32:41.536Z,3.10
2023-11-24T16:35:10.513Z,3.10
2023-11-24T16:37:39.005Z,3.00
2023-11-24T16:40:09.813Z,3.00
2023-11-24T16:42:38.431Z,3.00
2023-11-24T16:45:08.181Z,3.00
2023-11-24T16:47:38.715Z,3.00
2023-11-24T16:50:08.967Z,3.00
2023-11-24T16:52:44.058Z,2.90
2023-11-24T16:55:14.143Z,3.00
2023-11-24T16:57:42.991Z,2.90
2023-11-24T17:00:14.798Z,2.90
2023-11-24T17:02:49.795Z,2.90
2023-11-24T17:05:19.608Z,2.90
2023-11-24T17:07:47.879Z,2.90
2023-11-24T17:10:16.663Z,2.90
2023-11-24T17:12:44.950Z,2.90
2023-11-24T17:15:16.747Z,2.90
2023-11-24T17:17:48.062Z,2.90
2023-11-24T17:20:16.988Z,2.90
2023-11-24T17:22:45.318Z,2.90
2023-11-24T17:25:21.560Z,2.90
2023-11-24T17:27:56.580Z,2.90
2023-11-24T17:30:25.883Z,2.90
2023-11-24T17:32:55.588Z,2.90
2023-11-24T17:35:24.958Z,2.90
2023-11-24T17:37:53.629Z,2.90
2023-11-24T17:40:23.383Z,2.90
2023-11-24T17:42:51.977Z,2.90
2023-11-24T17:45:21.257Z,2.90
2023-11-24T17:47:50.295Z,2.90
2023-11-24T17:50:21.047Z,2.90
2023-11-24T17:52:50.177Z,2.80
2023-11-24T17:55:19.822Z,2.80
2023-11-24T17:57:49.653Z,2.80
2023-11-24T18:00:22.420Z,2.80
2023-11-24T18:02:51.353Z,2.80
2023-11-24T18:05:22.804Z,2.80
2023-11-24T18:07:51.144Z,2.80
2023-11-24T18:10:20.242Z,2.80
2023-11-24T18:12:50.813Z,2.80
2023-11-24T18:15:19.760Z,2.80
2023-11-24T18:17:48.156Z,2.80
2023-11-24T18:20:16.902Z,2.80
2023-11-24T18:22:46.804Z,2.90
2023-11-24T18:25:15.604Z,2.90
2023-11-24T18:27:44.209Z,2.90
2023-11-24T18:30:14.894Z,2.80
2023-11-24T18:32:45.185Z,2.80
2023-11-24T18:35:14.050Z,2.80
2023-11-24T18:37:43.039Z,2.80
2023-11-24T18:40:14.736Z,2.80
2023-11-24T18:42:43.153Z,2.80
2023-11-24T18:45:11.870Z,2.80
2023-11-24T18:47:40.145Z,2.80
2023-11-24T18:50:09.964Z,2.80
2023-11-24T18:52:38.698Z,2.80
2023-11-24T18:55:08.184Z,2.80
2023-11-24T18:57:38.041Z,2.80
2023-11-24T19:00:08.026Z,2.80
2023-11-24T19:02:36.404Z,2.80
2023-11-24T19:05:07.159Z,2.80
2023-11-24T19:07:35.621Z,2.80
2023-11-24T19:10:04.389Z,2.80
2023-11-24T19:12:32.713Z,2.80
2023-11-24T19:15:05.542Z,2.80
2023-11-24T19:17:35.146Z,2.80
2023-11-24T19:20:03.700Z,2.90
2023-11-24T19:22:32.357Z,2.90
2023-11-24T19:25:01.014Z,2.90
2023-11-24T19:27:29.413Z,2.90
2023-11-24T19:29:58.189Z,2.90
2023-11-24T19:32:28.697Z,2.90
2023-11-24T19:34:57.220Z,2.90
2023-11-24T19:37:25.920Z,2.90
2023-11-24T19:39:54.525Z,2.90
2023-11-24T19:42:22.995Z,3.00
2023-11-24T19:44:51.668Z,2.90
2023-11-24T19:47:19.980Z,2.90
2023-11-24T19:49:51.054Z,2.90
2023-11-24T19:52:19.301Z,2.90
2023-11-24T19:54:48.025Z,2.90
2023-11-24T19:57:17.305Z,2.90
2023-11-24T19:59:45.840Z,2.90
2023-11-24T20:02:14.173Z,2.90
2023-11-24T20:04:42.830Z,2.90
2023-11-24T20:07:12.464Z,2.90
2023-11-24T20:09:40.991Z,2.90
2023-11-24T20:12:10.864Z,2.80
2023-11-24T20:14:40.144Z,2.80
2023-11-24T20:17:09.614Z,2.90
2023-11-24T20:19:38.227Z,2.80
2023-11-24T20:22:06.786Z,2.80
2023-11-24T20:24:36.632Z,2.70
2023-11-24T20:27:05.031Z,2.70
2023-11-24T20:29:33.530Z,2.70
2023-11-24T20:32:02.212Z,2.70
2023-11-24T20:34:30.922Z,2.70
2023-11-24T20:36:59.302Z,2.70
2023-11-24T20:39:27.841Z,2.60
2023-11-24T20:41:57.719Z,2.60
2023-11-24T20:44:28.558Z,2.60
2023-11-24T20:46:57.754Z,2.60
2023-11-24T20:49:26.739Z,2.70
2023-11-24T20:51:55.089Z,2.70
2023-11-24T20:54:23.625Z,2.70
2023-11-24T20:56:51.892Z,2.70
2023-11-24T20:59:22.445Z,2.70
2023-11-24T21:01:50.757Z,2.70
2023-11-24T21:04:19.448Z,2.70
2023-11-24T21:06:47.716Z,2.80
2023-11-24T21:09:16.544Z,2.70
2023-11-24T21:11:44.811Z,2.70
2023-11-24T21:14:13.345Z,2.80
2023-11-24T21:16:42.935Z,2.70
2023-11-24T21:19:12.715Z,2.80
2023-11-24T21:21:41.035Z,2.70
2023-11-24T21:24:10.976Z,2.70
2023-11-24T21:26:39.166Z,2.70
2023-11-24T21:29:07.744Z,2.70
2023-11-24T21:31:36.230Z,2.70
2023-11-24T21:34:06.287Z,2.70
2023-11-24T21:36:34.554Z,2.70
2023-11-24T21:39:05.951Z,2.70
2023-11-24T21:41:36.010Z,2.70
2023-11-24T21:44:04.743Z,2.70
2023-11-24T21:46:33.227Z,2.70
2023-11-24T21:49:02.222Z,2.70
2023-11-24T21:51:31.846Z,2.70
2023-11-24T21:54:00.455Z,2.70
2023-11-24T21:56:30.169Z,2.70
2023-11-24T21:58:58.702Z,2.70
2023-11-24T22:01:27.370Z,2.70
2023-11-24T22:03:56.971Z,2.70
2023-11-24T22:06:29.653Z,2.60
2023-11-24T22:08:59.774Z,2.80
2023-11-24T22:11:28.118Z,2.80
2023-11-24T22:13:56.874Z,2.70
2023-11-24T22:16:25.417Z,2.70
2023-11-24T22:18:54.087Z,2.70
2023-11-24T22:21:22.607Z,2.70
2023-11-24T22:23:51.242Z,2.70
2023-11-24T22:26:24.262Z,2.70
2023-11-24T22:28:54.745Z,2.70
2023-11-24T22:31:23.131Z,2.60
2023-11-24T22:33:51.826Z,2.60
2023-11-24T22:36:21.036Z,2.50
2023-11-24T22:38:50.379Z,2.50
2023-11-24T22:41:20.670Z,2.50
2023-11-24T22:43:52.366Z,2.50
2023-11-24T22:46:21.880Z,2.50
2023-11-24T22:48:50.944Z,2.50
2023-11-24T22:51:20.970Z,2.50
2023-11-24T22:53:49.650Z,2.60
2023-11-24T22:56:24.042Z,2.60
2023-11-24T22:58:55.820Z,2.60
2023-11-24T23:01:25.230Z,2.60
2023-11-24T23:03:55.378Z,2.60
2023-11-24T23:06:25.007Z,2.60
2023-11-24T23:08:55.312Z,2.60
2023-11-24T23:11:27.052Z,2.60
2023-11-24T23:13:55.552Z,2.70
2023-11-24T23:16:26.888Z,2.70
2023-11-24T23:18:55.675Z,2.70
2023-11-24T23:21:24.516Z,2.70
2023-11-24T23:23:53.517Z,2.70
2023-11-24T23:26:22.607Z,2.70
2023-11-24T23:28:52.879Z,2.70
2023-11-24T23:31:23.212Z,2.70
2023-11-24T23:33:53.186Z,2.70
2023-11-24T23:36:21.446Z,2.70
2023-11-24T23:38:50.344Z,2.70
2023-11-24T23:41:18.799Z,2.70
2023-11-24T23:43:47.336Z,2.70
2023-11-24T23:46:17.259Z,2.70
2023-11-24T23:48:46.040Z,2.70
2023-11-24T23:51:14.293Z,2.60
2023-11-24T23:53:42.697Z,2.60
2023-11-24T23:56:13.500Z,2.60
2023-11-24T23:58:42.226Z,2.60
